Skip Navigation Links Skip Navigation Links

Current Weather

Jack Northrop Field/Hawthorne Municipal, Hawthorne, Calif.

For information only: do not use for flight planning or navigation.
Latest weather
Observation time Tuesday, October 19, 2021 1:53 AM PDT
Local time Tuesday, October 19, 2021 2:45 AM PDT
Flight conditions Visual Meteorological Conditions
Winds
Wind direction East (90°)
Wind speed 3 mph
Visibility 10 mi.
Sky condition
Ceiling unlimited
Sky clear
Temperature 57°F
Dewpoint 48°F
Altimeter 30.00 in.Hg
Pressure change last 3 hours0.00 in.Hg
Pressure falling, then rising
Derived measurements
Relative humidity 72%
Density altitude 8 ft.
Sea-level pressure 30.00 in.Hg
Remarks
Fully automated report.
System requires maintenance.
Automated weather observing station with precipitation discriminator.
METAR KHHR 190853Z AUTO 09003KT 10SM CLR 14/09 A3000 RMK AO2 SLP158 T01390089 55001 $

Settings

Location code

InnerDrive.Weather 4.0.6770.0 Release CLR 4.0.30319.42000
Copyright ©2018 Inner Drive Technology. All rights reserved. Portions Copyright ©1986-2018 David Braverman.

Find weather

Site navigation


Skip Navigation Links

Place info

Page info

PayPal - The safer, easier way to pay online!

Return home.

Copyright ©2021 Inner Drive Technology. Purveyors of fine, hand-crafted computer software. Page printed 2021-10-19T09:45:55 UTC.